^^
Saratoga-Weather Station Historical Data
Daily Summary for January 26, 2022 Units:  English    Metric   Both
Daily Weekly Monthly Yearly Custom
  High: Low: Average:
Temperature: 32.7 °F 29.7 °F 30.7 °F
Dew Point: 30.9 °F 28.9 °F 29.8 °F
Humidity: 97% 93% 96%
Wind Speed: 6.9mph 0mph 2mph
Wind Gust: 9mph - -
Wind- - West
Pressure: 30.5 in 30.5 in -
Precipitation: 0 in    
Historical Graphs
 
 
Tabular Data for January 26, 2022
Time Temperature Dew Point Pressure Wind Wind Speed Wind Gust Humidity Rainfall Rate (Hourly) solar
00:03 30 °F 29.3 °F 30.5 in West 2 mph 2 mph 97% 0 in 0 W/m2
00:08 30.2 °F 29.5 °F 30.5 in West 0.9 mph 3 mph 97% 0 in 0 W/m2
00:13 30.2 °F 29.5 °F 30.5 in Calm   3 mph 97% 0 in 0 W/m2
00:18 30.2 °F 29.5 °F 30.5 in Calm   1 mph 97% 0 in 0 W/m2
00:23 30.2 °F 29.5 °F 30.5 in Calm     97% 0 in 0 W/m2
00:28 30.2 °F 29.5 °F 30.5 in WNW 0.9 mph 3 mph 97% 0 in 0 W/m2
00:33 30.2 °F 29.5 °F 30.5 in WNW 0.9 mph 2 mph 97% 0 in 0 W/m2
00:38 30.2 °F 29.5 °F 30.5 in WNW 0.9 mph 3 mph 97% 0 in 0 W/m2
00:43 30 °F 29.3 °F 30.5 in WNW 0.9 mph 3 mph 97% 0 in 0 W/m2
00:48 30 °F 29.3 °F 30.5 in Calm   2 mph 97% 0 in 0 W/m2
00:53 30 °F 29.3 °F 30.5 in West 0.9 mph 4 mph 97% 0 in 0 W/m2
00:58 30 °F 29.3 °F 30.5 in Calm   1 mph 97% 0 in 0 W/m2
01:03 29.8 °F 29.1 °F 30.5 in Calm     97% 0 in 0 W/m2
01:08 29.8 °F 29.1 °F 30.5 in West 4 mph 4 mph 97% 0 in 0 W/m2
01:13 29.8 °F 29.1 °F 30.5 in WNW 0.9 mph 3 mph 97% 0 in 0 W/m2
01:18 29.8 °F 29.1 °F 30.5 in Calm   2 mph 97% 0 in 0 W/m2
01:23 29.8 °F 29.1 °F 30.5 in Calm   1 mph 97% 0 in 0 W/m2
01:28 29.8 °F 29.1 °F 30.5 in Calm   1 mph 97% 0 in 0 W/m2
01:33 29.8 °F 29.1 °F 30.5 in Calm     97% 0 in 0 W/m2
01:38 29.8 °F 29.1 °F 30.5 in Calm   2 mph 97% 0 in 0 W/m2
01:43 29.8 °F 29.1 °F 30.5 in Calm   2 mph 97% 0 in 0 W/m2
01:48 29.8 °F 29.1 °F 30.5 in Calm   2 mph 97% 0 in 0 W/m2
01:53 29.8 °F 29.1 °F 30.5 in NW 0.9 mph 2 mph 97% 0 in 0 W/m2
01:58 29.8 °F 29.1 °F 30.5 in WNW 2 mph 3 mph 97% 0 in 0 W/m2
02:03 30 °F 29.3 °F 30.5 in Calm   2 mph 97% 0 in 0 W/m2
02:08 29.8 °F 29.1 °F 30.5 in West 2 mph 3 mph 97% 0 in 0 W/m2
02:13 29.8 °F 29.1 °F 30.5 in SW 0.9 mph 3 mph 97% 0 in 0 W/m2
02:18 29.8 °F 29.1 °F 30.5 in WNW 4.9 mph 5 mph 97% 0 in 0 W/m2
02:23 29.7 °F 28.9 °F 30.5 in WNW 2.9 mph 5 mph 97% 0 in 0 W/m2
02:28 29.7 °F 28.9 °F 30.5 in West 2.9 mph 4 mph 97% 0 in 0 W/m2
02:33 29.7 °F 28.9 °F 30.5 in West 0.9 mph 5 mph 97% 0 in 0 W/m2
02:38 29.7 °F 28.9 °F 30.5 in NW 0.9 mph 3 mph 97% 0 in 0 W/m2
02:43 29.8 °F 29.1 °F 30.5 in WNW 2 mph 4 mph 97% 0 in 0 W/m2
02:48 29.8 °F 29.1 °F 30.5 in WSW 2 mph 6 mph 97% 0 in 0 W/m2
02:54 29.7 °F 28.9 °F 30.5 in WNW 2.9 mph 6 mph 97% 0 in 0 W/m2
02:59 29.7 °F 28.9 °F 30.5 in NW 2 mph 2 mph 97% 0 in 0 W/m2
03:04 29.8 °F 29.1 °F 30.5 in West 2 mph 3 mph 97% 0 in 0 W/m2
03:09 29.7 °F 28.9 °F 30.5 in WSW 0.9 mph 6 mph 97% 0 in 0 W/m2
03:14 29.7 °F 28.9 °F 30.5 in West 0.9 mph 3 mph 97% 0 in 0 W/m2
03:19 29.7 °F 28.9 °F 30.5 in West 0.9 mph 4 mph 97% 0 in 0 W/m2
03:24 29.7 °F 28.9 °F 30.5 in Calm   3 mph 97% 0 in 0 W/m2
03:29 29.7 °F 28.9 °F 30.5 in West 2 mph 3 mph 97% 0 in 0 W/m2
03:34 29.7 °F 28.9 °F 30.5 in Calm   2 mph 97% 0 in 0 W/m2
03:39 29.7 °F 28.9 °F 30.5 in Calm   2 mph 97% 0 in 0 W/m2
03:44 29.8 °F 29.1 °F 30.5 in West 0.9 mph 1 mph 97% 0 in 0 W/m2
03:49 29.8 °F 29.1 °F 30.5 in Calm   2 mph 97% 0 in 0 W/m2
03:54 30 °F 29.3 °F 30.5 in West 0.9 mph 3 mph 97% 0 in 0 W/m2
03:59 30 °F 29.3 °F 30.5 in West 2 mph 2 mph 97% 0 in 0 W/m2
04:04 30.2 °F 29.5 °F 30.5 in Calm   3 mph 97% 0 in 0 W/m2
04:09 30.4 °F 29.7 °F 30.5 in Calm   3 mph 97% 0 in 0 W/m2
04:14 30.4 °F 29.7 °F 30.5 in West 2 mph 3 mph 97% 0 in 0 W/m2
04:19 30.4 °F 29.7 °F 30.5 in Calm     97% 0 in 0 W/m2
04:24 30.6 °F 29.8 °F 30.5 in Calm   3 mph 97% 0 in 0 W/m2
04:29 30.6 °F 29.8 °F 30.5 in Calm     97% 0 in 0 W/m2
04:34 30.6 °F 29.8 °F 30.5 in NE 2 mph 3 mph 97% 0 in 0 W/m2
04:39 30.6 °F 29.8 °F 30.5 in NE 2 mph 3 mph 97% 0 in 0 W/m2
04:44 30.6 °F 29.8 °F 30.5 in NE 2.9 mph 3 mph 97% 0 in 0 W/m2
04:49 30.4 °F 29.7 °F 30.5 in Calm   1 mph 97% 0 in 0 W/m2
04:54 30.4 °F 29.7 °F 30.5 in East 2 mph 3 mph 97% 0 in 0 W/m2
04:59 30.4 °F 29.7 °F 30.5 in East 0.9 mph 2 mph 97% 0 in 0 W/m2
05:04 30.4 °F 29.7 °F 30.5 in Calm   2 mph 97% 0 in 0 W/m2
05:09 30.4 °F 29.7 °F 30.5 in Calm   1 mph 97% 0 in 0 W/m2
05:14 30.4 °F 29.7 °F 30.5 in Calm   2 mph 97% 0 in 0 W/m2
05:19 30.4 °F 29.7 °F 30.5 in Calm     97% 0 in 0 W/m2
05:24 30.4 °F 29.7 °F 30.5 in Calm     97% 0 in 0 W/m2
05:29 30.4 °F 29.7 °F 30.5 in Calm     97% 0 in 0 W/m2
05:34 30.4 °F 29.7 °F 30.5 in Calm   2 mph 97% 0 in 0 W/m2
05:39 30.4 °F 29.7 °F 30.5 in East 0.9 mph 2 mph 97% 0 in 0 W/m2
05:44 30.4 °F 29.7 °F 30.5 in East 2 mph 3 mph 97% 0 in 0 W/m2
05:49 30.4 °F 29.7 °F 30.5 in East 0.9 mph 2 mph 97% 0 in 0 W/m2
05:54 30.4 °F 29.7 °F 30.5 in East 0.9 mph 3 mph 97% 0 in 0 W/m2
05:59 30.4 °F 29.7 °F 30.5 in East 0.9 mph 2 mph 97% 0 in 0 W/m2
06:04 30.6 °F 29.8 °F 30.5 in Calm   1 mph 97% 0 in 0 W/m2
06:09 30.6 °F 29.8 °F 30.5 in Calm   2 mph 97% 0 in 0 W/m2
06:14 30.6 °F 29.8 °F 30.5 in Calm   1 mph 97% 0 in 0 W/m2
06:19 30.6 °F 29.8 °F 30.5 in East 0.9 mph 2 mph 97% 0 in 0 W/m2
06:24 30.6 °F 29.8 °F 30.5 in Calm   1 mph 97% 0 in 0 W/m2
06:29 30.6 °F 29.8 °F 30.5 in East 0.9 mph 2 mph 97% 0 in 0 W/m2
06:34 30.6 °F 29.8 °F 30.5 in Calm     97% 0 in 0 W/m2
06:39 30.6 °F 29.8 °F 30.5 in Calm   2 mph 97% 0 in 0 W/m2
06:44 30.7 °F 30 °F 30.5 in Calm   1 mph 97% 0 in 0 W/m2
06:49 30.7 °F 30 °F 30.5 in SSE 0.9 mph 3 mph 97% 0 in 0 W/m2
06:54 30.7 °F 30 °F 30.5 in WNW 0.9 mph 3 mph 97% 0 in 0 W/m2
06:59 30.9 °F 30.2 °F 30.5 in West 2 mph 3 mph 97% 0 in 0 W/m2
07:04 30.9 °F 30.2 °F 30.5 in West 0.9 mph 3 mph 97% 0 in 0 W/m2
07:09 30.9 °F 30.2 °F 30.5 in NW 2.9 mph 6 mph 97% 0 in 0 W/m2
07:14 30.7 °F 30 °F 30.5 in WSW 2.9 mph 6 mph 97% 0 in 0 W/m2
07:19 30.7 °F 30 °F 30.5 in WNW 0.9 mph 2 mph 97% 0 in 0 W/m2
07:24 30.7 °F 30 °F 30.5 in WNW 2 mph 4 mph 97% 0 in 0 W/m2
07:29 30.7 °F 30 °F 30.5 in NW 4 mph 6 mph 97% 0 in 0 W/m2
07:34 30.7 °F 30 °F 30.5 in West 2 mph 4 mph 97% 0 in 0 W/m2
07:39 30.7 °F 30 °F 30.5 in West 2 mph 3 mph 97% 0 in 0 W/m2
07:44 30.7 °F 30 °F 30.5 in WNW 2 mph 4 mph 97% 0 in 0 W/m2
07:49 30.7 °F 30 °F 30.5 in West 2 mph 7 mph 97% 0 in 0 W/m2
07:54 30.7 °F 30 °F 30.5 in WNW 2 mph 5 mph 97% 0 in 0 W/m2
07:59 30.7 °F 30 °F 30.5 in West 2 mph 6 mph 97% 0 in 0 W/m2
08:04 30.7 °F 30 °F 30.5 in WNW 0.9 mph 4 mph 97% 0 in 0 W/m2
08:09 30.7 °F 30 °F 30.5 in WNW 2 mph 5 mph 97% 0 in 0 W/m2
08:14 30.7 °F 30 °F 30.5 in NW 4 mph 6 mph 97% 0 in 0 W/m2
08:19 30.7 °F 30 °F 30.5 in WSW 2.9 mph 6 mph 97% 0 in 0 W/m2
08:24 30.6 °F 29.8 °F 30.5 in WNW 4 mph 4 mph 97% 0 in 0 W/m2
08:29 30.6 °F 29.8 °F 30.5 in WSW 4 mph 6 mph 97% 0 in 0 W/m2
08:34 30.6 °F 29.8 °F 30.5 in WSW 2.9 mph 6 mph 97% 0 in 0 W/m2
08:39 30.6 °F 29.8 °F 30.5 in West 0.9 mph 6 mph 97% 0 in 0 W/m2
08:44 30.6 °F 29.8 °F 30.5 in West 2.9 mph 6 mph 97% 0 in 5 W/m2
08:49 30.6 °F 29.8 °F 30.5 in West 4 mph 8 mph 97% 0 in 5 W/m2
08:54 30.6 °F 29.8 °F 30.5 in West 2.9 mph 7 mph 97% 0 in 7 W/m2
08:59 30.6 °F 29.8 °F 30.5 in WSW 2.9 mph 6 mph 97% 0 in 7 W/m2
09:04 30.7 °F 29.7 °F 30.5 in NW 4.9 mph 6 mph 96% 0 in 9 W/m2
09:09 30.7 °F 29.7 °F 30.5 in NW 4.9 mph 5 mph 96% 0 in 11 W/m2
09:14 30.7 °F 29.7 °F 30.5 in WSW 0.9 mph 4 mph 96% 0 in 9 W/m2
09:19 30.7 °F 29.7 °F 30.5 in West 0.9 mph 2 mph 96% 0 in 11 W/m2
09:24 30.7 °F 29.7 °F 30.5 in West 0.9 mph 2 mph 96% 0 in 18 W/m2
09:29 30.7 °F 30 °F 30.5 in NW 2.9 mph 3 mph 97% 0 in 18 W/m2
09:34 30.7 °F 30 °F 30.5 in WNW 0.9 mph 2 mph 97% 0 in 18 W/m2
09:39 30.7 °F 30 °F 30.5 in Calm   2 mph 97% 0 in 21 W/m2
09:44 30.7 °F 29.7 °F 30.5 in West 0.9 mph 4 mph 96% 0 in 19 W/m2
09:49 30.6 °F 29.5 °F 30.5 in West 2 mph 4 mph 96% 0 in 21 W/m2
09:54 30.6 °F 29.5 °F 30.5 in WNW 2 mph 3 mph 96% 0 in 23 W/m2
09:59 30.6 °F 29.5 °F 30.5 in NNW 2 mph 4 mph 96% 0 in 25 W/m2
10:04 30.6 °F 29.5 °F 30.5 in WNW 2.9 mph 5 mph 96% 0 in 25 W/m2
10:09 30.6 °F 29.5 °F 30.5 in West 2 mph 6 mph 96% 0 in 23 W/m2
10:14 30.6 °F 29.5 °F 30.5 in WNW 0.9 mph 3 mph 96% 0 in 25 W/m2
10:19 30.6 °F 29.5 °F 30.5 in West 2.9 mph 5 mph 96% 0 in 25 W/m2
10:24 30.6 °F 29.5 °F 30.5 in West 0.9 mph 4 mph 96% 0 in 26 W/m2
10:29 30.6 °F 29.5 °F 30.5 in WSW 4 mph 5 mph 96% 0 in 28 W/m2
10:34 30.6 °F 29.5 °F 30.5 in West 6 mph 6 mph 96% 0 in 30 W/m2
10:39 30.6 °F 29.5 °F 30.5 in WNW 2 mph 3 mph 96% 0 in 28 W/m2
10:44 30.6 °F 29.5 °F 30.5 in WSW 2.9 mph 6 mph 96% 0 in 32 W/m2
10:49 30.4 °F 29.3 °F 30.5 in NW 2.9 mph 6 mph 96% 0 in 28 W/m2
10:54 30.6 °F 29.5 °F 30.5 in WNW 2.9 mph 5 mph 96% 0 in 33 W/m2
11:00 30.6 °F 29.5 °F 30.5 in WSW 4.9 mph 8 mph 96% 0 in 32 W/m2
11:05 30.6 °F 29.5 °F 30.5 in West 2.9 mph 8 mph 96% 0 in 33 W/m2
11:10 30.4 °F 29.3 °F 30.5 in West 4 mph 8 mph 96% 0 in 37 W/m2
11:15 30.6 °F 29.5 °F 30.5 in WNW 6.9 mph 8 mph 96% 0 in 35 W/m2
11:20 30.6 °F 29.3 °F 30.5 in WNW 0.9 mph 9 mph 95% 0 in 44 W/m2
11:25 30.6 °F 29.3 °F 30.5 in WNW 4.9 mph 7 mph 95% 0 in 42 W/m2
11:30 30.6 °F 29.3 °F 30.5 in WSW 2 mph 5 mph 95% 0 in 35 W/m2
11:35 30.7 °F 29.5 °F 30.5 in WSW 4 mph 7 mph 95% 0 in 33 W/m2
11:40 30.7 °F 29.5 °F 30.5 in NW 2.9 mph 7 mph 95% 0 in 32 W/m2
11:45 30.7 °F 29.5 °F 30.5 in WSW 2.9 mph 6 mph 95% 0 in 35 W/m2
11:50 30.7 °F 29.5 °F 30.5 in West 2 mph 6 mph 95% 0 in 47 W/m2
11:55 30.7 °F 29.5 °F 30.5 in WNW 2.9 mph 4 mph 95% 0 in 47 W/m2
12:00 30.7 °F 29.5 °F 30.5 in WSW 2.9 mph 8 mph 95% 0 in 54 W/m2
12:05 30.7 °F 29.5 °F 30.5 in NW 4.9 mph 7 mph 95% 0 in 51 W/m2
12:10 30.9 °F 29.7 °F 30.5 in West 4 mph 6 mph 95% 0 in 46 W/m2
12:15 31.1 °F 29.8 °F 30.5 in WNW 4.9 mph 6 mph 95% 0 in 53 W/m2
12:20 31.1 °F 29.8 °F 30.5 in West 4 mph 6 mph 95% 0 in 54 W/m2
12:25 31.3 °F 30 °F 30.5 in WNW 2 mph 8 mph 95% 0 in 54 W/m2
12:30 31.3 °F 30 °F 30.5 in WNW 2 mph 5 mph 95% 0 in 54 W/m2
12:35 31.3 °F 30 °F 30.5 in West 6 mph 7 mph 95% 0 in 54 W/m2
12:40 31.5 °F 30.2 °F 30.5 in West 6 mph 8 mph 95% 0 in 58 W/m2
12:45 31.5 °F 30 °F 30.5 in WSW 4.9 mph 7 mph 94% 0 in 62 W/m2
12:50 31.6 °F 30.2 °F 30.5 in West 4 mph 8 mph 94% 0 in 63 W/m2
12:55 31.6 °F 30.2 °F 30.5 in West 2.9 mph 3 mph 94% 0 in 65 W/m2
13:00 31.8 °F 30.4 °F 30.5 in West 2.9 mph 6 mph 94% 0 in 56 W/m2
13:05 31.8 °F 30.4 °F 30.5 in West 2.9 mph 6 mph 94% 0 in 60 W/m2
13:10 31.8 °F 30.4 °F 30.5 in SW 6 mph 8 mph 94% 0 in 53 W/m2
13:15 31.8 °F 30.4 °F 30.5 in WSW 4 mph 4 mph 94% 0 in 51 W/m2
13:20 32 °F 30.6 °F 30.5 in WNW 2.9 mph 8 mph 94% 0 in 51 W/m2
13:25 32 °F 30.6 °F 30.5 in NW 4 mph 4 mph 94% 0 in 44 W/m2
13:30 32 °F 30.6 °F 30.5 in West 2.9 mph 7 mph 94% 0 in 47 W/m2
13:35 32 °F 30.6 °F 30.5 in WNW 2.9 mph 3 mph 94% 0 in 46 W/m2
13:40 32 °F 30.6 °F 30.5 in West 4 mph 5 mph 94% 0 in 47 W/m2
13:45 32.2 °F 30.6 °F 30.5 in NW 2 mph 4 mph 94% 0 in 46 W/m2
13:50 32.2 °F 30.6 °F 30.5 in West 2 mph 6 mph 94% 0 in 44 W/m2
13:55 32.2 °F 30.6 °F 30.5 in West 2.9 mph 6 mph 94% 0 in 40 W/m2
14:00 32.2 °F 30.6 °F 30.5 in WNW 2.9 mph 4 mph 94% 0 in 42 W/m2
14:05 32.2 °F 30.6 °F 30.5 in WNW 2 mph 4 mph 94% 0 in 42 W/m2
14:10 32.2 °F 30.6 °F 30.5 in NW 2.9 mph 4 mph 94% 0 in 40 W/m2
14:15 32.4 °F 30.7 °F 30.5 in West 2.9 mph 6 mph 94% 0 in 37 W/m2
14:20 32.4 °F 30.6 °F 30.5 in West 6 mph 7 mph 93% 0 in 35 W/m2
14:25 32.4 °F 30.6 °F 30.5 in West 2 mph 3 mph 93% 0 in 28 W/m2
14:30 32.4 °F 30.7 °F 30.5 in West 2.9 mph 5 mph 94% 0 in 26 W/m2
14:35 32.4 °F 30.6 °F 30.5 in WSW 4 mph 4 mph 93% 0 in 26 W/m2
14:40 32.4 °F 30.6 °F 30.5 in WNW 4 mph 7 mph 93% 0 in 28 W/m2
14:45 32.4 °F 30.6 °F 30.5 in West 2 mph 6 mph 93% 0 in 28 W/m2
14:50 32.4 °F 30.7 °F 30.5 in West 2.9 mph 4 mph 94% 0 in 30 W/m2
14:55 32.5 °F 30.9 °F 30.5 in WNW 2.9 mph 4 mph 94% 0 in 30 W/m2
15:00 32.5 °F 30.9 °F 30.5 in West 0.9 mph 3 mph 94% 0 in 28 W/m2
15:05 32.5 °F 30.9 °F 30.5 in West 2.9 mph 3 mph 94% 0 in 26 W/m2
15:10 32.5 °F 30.9 °F 30.5 in WNW 2 mph 3 mph 94% 0 in 25 W/m2
15:15 32.5 °F 30.9 °F 30.5 in WNW 2.9 mph 4 mph 94% 0 in 26 W/m2
15:20 32.5 °F 30.9 °F 30.5 in West 2 mph 4 mph 94% 0 in 25 W/m2
15:25 32.5 °F 30.9 °F 30.5 in WSW 2 mph 4 mph 94% 0 in 21 W/m2
15:30 32.5 °F 30.9 °F 30.5 in West 2 mph 4 mph 94% 0 in 21 W/m2
15:35 32.5 °F 30.9 °F 30.5 in Calm   1 mph 94% 0 in 19 W/m2
15:40 32.5 °F 30.7 °F 30.5 in WNW 0.9 mph 2 mph 93% 0 in 19 W/m2
15:45 32.7 °F 30.9 °F 30.5 in WNW 2 mph 4 mph 93% 0 in 19 W/m2
15:50 32.7 °F 30.9 °F 30.5 in WNW 2 mph 3 mph 93% 0 in 16 W/m2
15:55 32.7 °F 30.9 °F 30.5 in WNW 2 mph 4 mph 93% 0 in 18 W/m2
16:00 32.7 °F 30.9 °F 30.5 in West 2 mph 2 mph 93% 0 in 16 W/m2
16:05 32.5 °F 30.7 °F 30.5 in West 2.9 mph 3 mph 93% 0 in 16 W/m2
16:10 32.5 °F 30.7 °F 30.5 in West 2.9 mph 4 mph 93% 0 in 16 W/m2
16:15 32.5 °F 30.9 °F 30.5 in WNW 2.9 mph 4 mph 94% 0 in 12 W/m2
Juneau County Weather
Compliments of Weather Underground - 2 mb